sensor_id;sensor_type;location;lat;lon;timestamp;P1;durP1;ratioP1;P2;durP2;ratioP2
40967;SDS011;57377;45.130;6.038;2022-11-20T00:00:55;13.25;;;3.30;;
40967;SDS011;57377;45.130;6.038;2022-11-20T00:03:20;17.77;;;6.80;;
40967;SDS011;57377;45.130;6.038;2022-11-20T00:05:46;9.13;;;4.25;;
40967;SDS011;57377;45.130;6.038;2022-11-20T00:08:11;14.77;;;5.50;;
40967;SDS011;57377;45.130;6.038;2022-11-20T00:10:37;7.72;;;4.43;;
40967;SDS011;57377;45.130;6.038;2022-11-20T00:13:03;12.32;;;4.63;;
40967;SDS011;57377;45.130;6.038;2022-11-20T00:15:29;12.80;;;4.32;;
40967;SDS011;57377;45.130;6.038;2022-11-20T00:17:55;11.73;;;3.87;;
40967;SDS011;57377;45.130;6.038;2022-11-20T00:20:20;7.35;;;3.38;;
40967;SDS011;57377;45.130;6.038;2022-11-20T00:22:46;6.00;;;3.00;;
40967;SDS011;57377;45.130;6.038;2022-11-20T00:25:11;8.70;;;4.03;;
40967;SDS011;57377;45.130;6.038;2022-11-20T00:27:37;12.88;;;4.70;;
40967;SDS011;57377;45.130;6.038;2022-11-20T00:30:02;12.25;;;4.80;;
40967;SDS011;57377;45.130;6.038;2022-11-20T00:32:29;13.18;;;4.10;;
40967;SDS011;57377;45.130;6.038;2022-11-20T00:34:55;10.85;;;4.35;;
40967;SDS011;57377;45.130;6.038;2022-11-20T00:37:20;11.32;;;4.57;;
40967;SDS011;57377;45.130;6.038;2022-11-20T00:39:46;10.95;;;3.20;;
40967;SDS011;57377;45.130;6.038;2022-11-20T00:42:11;5.13;;;2.65;;
40967;SDS011;57377;45.130;6.038;2022-11-20T00:44:36;4.95;;;2.03;;
40967;SDS011;57377;45.130;6.038;2022-11-20T00:47:02;5.38;;;3.00;;
40967;SDS011;57377;45.130;6.038;2022-11-20T00:49:27;5.05;;;2.38;;
40967;SDS011;57377;45.130;6.038;2022-11-20T00:51:52;3.35;;;2.15;;
40967;SDS011;57377;45.130;6.038;2022-11-20T00:54:18;5.28;;;2.42;;
40967;SDS011;57377;45.130;6.038;2022-11-20T00:56:43;11.50;;;2.65;;
40967;SDS011;57377;45.130;6.038;2022-11-20T00:59:09;4.32;;;2.08;;
40967;SDS011;57377;45.130;6.038;2022-11-20T01:01:36;6.65;;;2.60;;
40967;SDS011;57377;45.130;6.038;2022-11-20T01:04:02;4.00;;;2.30;;
40967;SDS011;57377;45.130;6.038;2022-11-20T01:06:31;5.72;;;2.85;;
40967;SDS011;57377;45.130;6.038;2022-11-20T01:09:02;4.15;;;2.00;;
40967;SDS011;57377;45.130;6.038;2022-11-20T01:11:31;3.95;;;2.17;;
40967;SDS011;57377;45.130;6.038;2022-11-20T01:13:58;3.65;;;1.90;;
40967;SDS011;57377;45.130;6.038;2022-11-20T01:18:53;4.30;;;2.40;;
40967;SDS011;57377;45.130;6.038;2022-11-20T01:21:25;5.03;;;3.00;;
40967;SDS011;57377;45.130;6.038;2022-11-20T01:23:52;3.28;;;2.22;;
40967;SDS011;57377;45.130;6.038;2022-11-20T01:26:22;7.22;;;2.22;;
40967;SDS011;57377;45.130;6.038;2022-11-20T01:28:50;3.40;;;1.75;;
40967;SDS011;57377;45.130;6.038;2022-11-20T01:31:17;3.50;;;2.08;;
40967;SDS011;57377;45.130;6.038;2022-11-20T01:33:46;4.57;;;2.08;;
40967;SDS011;57377;45.130;6.038;2022-11-20T01:36:13;2.97;;;1.80;;
40967;SDS011;57377;45.130;6.038;2022-11-20T01:38:40;3.53;;;1.95;;
40967;SDS011;57377;45.130;6.038;2022-11-20T01:41:06;2.72;;;1.90;;
40967;SDS011;57377;45.130;6.038;2022-11-20T01:43:32;5.55;;;2.20;;
40967;SDS011;57377;45.130;6.038;2022-11-20T01:46:12;3.35;;;2.00;;
40967;SDS011;57377;45.130;6.038;2022-11-20T01:48:56;4.10;;;2.20;;
40967;SDS011;57377;45.130;6.038;2022-11-20T01:51:35;5.60;;;1.67;;
40967;SDS011;57377;45.130;6.038;2022-11-20T01:54:06;3.40;;;1.73;;
40967;SDS011;57377;45.130;6.038;2022-11-20T01:56:38;2.92;;;1.73;;
40967;SDS011;57377;45.130;6.038;2022-11-20T01:59:06;4.18;;;2.00;;
40967;SDS011;57377;45.130;6.038;2022-11-20T02:01:33;3.22;;;2.10;;
40967;SDS011;57377;45.130;6.038;2022-11-20T02:03:59;5.35;;;1.92;;
40967;SDS011;57377;45.130;6.038;2022-11-20T02:06:27;3.65;;;1.83;;
40967;SDS011;57377;45.130;6.038;2022-11-20T02:08:55;4.95;;;2.00;;
40967;SDS011;57377;45.130;6.038;2022-11-20T02:11:21;4.75;;;2.00;;
40967;SDS011;57377;45.130;6.038;2022-11-20T02:13:47;3.13;;;1.83;;
40967;SDS011;57377;45.130;6.038;2022-11-20T02:18:44;2.28;;;1.63;;
40967;SDS011;57377;45.130;6.038;2022-11-20T02:21:20;6.72;;;2.00;;
40967;SDS011;57377;45.130;6.038;2022-11-20T02:26:28;3.15;;;2.03;;
40967;SDS011;57377;45.130;6.038;2022-11-20T02:28:56;3.85;;;1.60;;
40967;SDS011;57377;45.130;6.038;2022-11-20T02:31:22;6.88;;;2.10;;
40967;SDS011;57377;45.130;6.038;2022-11-20T02:33:47;4.78;;;2.22;;
40967;SDS011;57377;45.130;6.038;2022-11-20T02:36:19;3.08;;;1.80;;
40967;SDS011;57377;45.130;6.038;2022-11-20T02:38:45;2.97;;;1.88;;
40967;SDS011;57377;45.130;6.038;2022-11-20T02:41:10;4.38;;;1.77;;
40967;SDS011;57377;45.130;6.038;2022-11-20T02:43:35;4.75;;;2.08;;
40967;SDS011;57377;45.130;6.038;2022-11-20T02:46:00;2.20;;;1.80;;
40967;SDS011;57377;45.130;6.038;2022-11-20T02:48:26;2.63;;;1.75;;
40967;SDS011;57377;45.130;6.038;2022-11-20T02:50:51;5.35;;;1.85;;
40967;SDS011;57377;45.130;6.038;2022-11-20T02:53:17;2.20;;;1.67;;
40967;SDS011;57377;45.130;6.038;2022-11-20T02:55:42;2.83;;;1.73;;
40967;SDS011;57377;45.130;6.038;2022-11-20T02:58:08;2.60;;;1.50;;
40967;SDS011;57377;45.130;6.038;2022-11-20T03:00:34;4.05;;;2.08;;
40967;SDS011;57377;45.130;6.038;2022-11-20T03:03:00;3.70;;;2.25;;
40967;SDS011;57377;45.130;6.038;2022-11-20T03:05:25;5.80;;;2.10;;
40967;SDS011;57377;45.130;6.038;2022-11-20T03:07:51;5.63;;;2.15;;
40967;SDS011;57377;45.130;6.038;2022-11-20T03:10:16;3.88;;;2.15;;
40967;SDS011;57377;45.130;6.038;2022-11-20T03:12:41;5.15;;;2.35;;
40967;SDS011;57377;45.130;6.038;2022-11-20T03:15:07;4.95;;;2.15;;
40967;SDS011;57377;45.130;6.038;2022-11-20T03:17:33;3.67;;;2.00;;
40967;SDS011;57377;45.130;6.038;2022-11-20T03:19:58;4.00;;;1.70;;
40967;SDS011;57377;45.130;6.038;2022-11-20T03:22:23;2.75;;;1.58;;
40967;SDS011;57377;45.130;6.038;2022-11-20T03:24:49;3.63;;;1.77;;
40967;SDS011;57377;45.130;6.038;2022-11-20T03:27:14;9.30;;;3.55;;
40967;SDS011;57377;45.130;6.038;2022-11-20T03:29:39;7.90;;;3.33;;
40967;SDS011;57377;45.130;6.038;2022-11-20T03:32:05;5.22;;;2.50;;
40967;SDS011;57377;45.130;6.038;2022-11-20T03:34:30;11.52;;;2.95;;
40967;SDS011;57377;45.130;6.038;2022-11-20T03:36:56;5.00;;;2.72;;
40967;SDS011;57377;45.130;6.038;2022-11-20T03:39:21;7.32;;;3.47;;
40967;SDS011;57377;45.130;6.038;2022-11-20T03:41:46;9.88;;;3.70;;
40967;SDS011;57377;45.130;6.038;2022-11-20T03:44:12;6.57;;;3.30;;
40967;SDS011;57377;45.130;6.038;2022-11-20T03:46:37;7.13;;;3.20;;
40967;SDS011;57377;45.130;6.038;2022-11-20T03:49:03;5.97;;;2.67;;
40967;SDS011;57377;45.130;6.038;2022-11-20T03:51:30;7.80;;;3.85;;
40967;SDS011;57377;45.130;6.038;2022-11-20T03:54:00;4.40;;;2.47;;
40967;SDS011;57377;45.130;6.038;2022-11-20T03:56:31;4.50;;;1.77;;
40967;SDS011;57377;45.130;6.038;2022-11-20T03:58:58;3.03;;;1.95;;
40967;SDS011;57377;45.130;6.038;2022-11-20T04:01:28;3.10;;;2.03;;
40967;SDS011;57377;45.130;6.038;2022-11-20T04:03:56;6.53;;;2.40;;
40967;SDS011;57377;45.130;6.038;2022-11-20T04:06:23;8.23;;;2.10;;
40967;SDS011;57377;45.130;6.038;2022-11-20T04:08:50;3.60;;;2.40;;
40967;SDS011;57377;45.130;6.038;2022-11-20T04:13:52;4.55;;;2.13;;
40967;SDS011;57377;45.130;6.038;2022-11-20T04:16:22;7.47;;;2.83;;
40967;SDS011;57377;45.130;6.038;2022-11-20T04:18:55;3.22;;;1.70;;
40967;SDS011;57377;45.130;6.038;2022-11-20T04:21:23;5.57;;;2.20;;
40967;SDS011;57377;45.130;6.038;2022-11-20T04:23:49;3.67;;;2.17;;
40967;SDS011;57377;45.130;6.038;2022-11-20T04:26:15;11.13;;;2.58;;
40967;SDS011;57377;45.130;6.038;2022-11-20T04:28:41;3.85;;;2.22;;
40967;SDS011;57377;45.130;6.038;2022-11-20T04:31:11;3.50;;;1.80;;
40967;SDS011;57377;45.130;6.038;2022-11-20T04:33:39;5.07;;;2.45;;
40967;SDS011;57377;45.130;6.038;2022-11-20T04:38:31;6.32;;;2.72;;
40967;SDS011;57377;45.130;6.038;2022-11-20T04:41:02;3.45;;;1.92;;
40967;SDS011;57377;45.130;6.038;2022-11-20T04:43:29;3.67;;;2.15;;
40967;SDS011;57377;45.130;6.038;2022-11-20T04:45:56;13.82;;;2.42;;
40967;SDS011;57377;45.130;6.038;2022-11-20T04:48:22;4.57;;;1.77;;
40967;SDS011;57377;45.130;6.038;2022-11-20T04:50:48;2.78;;;1.67;;
40967;SDS011;57377;45.130;6.038;2022-11-20T04:53:13;4.25;;;2.05;;
40967;SDS011;57377;45.130;6.038;2022-11-20T04:55:39;3.30;;;1.90;;
40967;SDS011;57377;45.130;6.038;2022-11-20T04:58:04;2.45;;;1.60;;
40967;SDS011;57377;45.130;6.038;2022-11-20T05:00:29;6.97;;;3.50;;
40967;SDS011;57377;45.130;6.038;2022-11-20T05:02:55;2.30;;;1.67;;
40967;SDS011;57377;45.130;6.038;2022-11-20T05:05:20;4.45;;;2.22;;
40967;SDS011;57377;45.130;6.038;2022-11-20T05:07:46;4.05;;;2.03;;
40967;SDS011;57377;45.130;6.038;2022-11-20T05:10:11;10.98;;;2.30;;
40967;SDS011;57377;45.130;6.038;2022-11-20T05:12:36;5.68;;;2.60;;
40967;SDS011;57377;45.130;6.038;2022-11-20T05:15:02;4.90;;;1.90;;
40967;SDS011;57377;45.130;6.038;2022-11-20T05:17:27;4.97;;;1.80;;
40967;SDS011;57377;45.130;6.038;2022-11-20T05:19:53;4.97;;;1.35;;
40967;SDS011;57377;45.130;6.038;2022-11-20T05:22:18;4.00;;;2.60;;
40967;SDS011;57377;45.130;6.038;2022-11-20T05:24:43;2.30;;;1.80;;
40967;SDS011;57377;45.130;6.038;2022-11-20T05:27:09;14.15;;;8.50;;
40967;SDS011;57377;45.130;6.038;2022-11-20T05:29:34;8.75;;;3.65;;
40967;SDS011;57377;45.130;6.038;2022-11-20T05:31:59;4.45;;;2.60;;
40967;SDS011;57377;45.130;6.038;2022-11-20T05:34:25;3.97;;;2.78;;
40967;SDS011;57377;45.130;6.038;2022-11-20T05:36:50;6.15;;;2.95;;
40967;SDS011;57377;45.130;6.038;2022-11-20T05:39:15;6.55;;;2.60;;
40967;SDS011;57377;45.130;6.038;2022-11-20T05:41:41;4.43;;;2.38;;
40967;SDS011;57377;45.130;6.038;2022-11-20T05:44:06;2.97;;;1.50;;
40967;SDS011;57377;45.130;6.038;2022-11-20T05:46:32;2.70;;;1.85;;
40967;SDS011;57377;45.130;6.038;2022-11-20T05:48:57;9.45;;;1.90;;
40967;SDS011;57377;45.130;6.038;2022-11-20T05:51:23;2.78;;;1.90;;
40967;SDS011;57377;45.130;6.038;2022-11-20T05:53:49;3.40;;;1.52;;
40967;SDS011;57377;45.130;6.038;2022-11-20T05:56:15;2.10;;;1.42;;
40967;SDS011;57377;45.130;6.038;2022-11-20T05:58:42;3.13;;;1.63;;
40967;SDS011;57377;45.130;6.038;2022-11-20T06:01:11;2.28;;;1.63;;
40967;SDS011;57377;45.130;6.038;2022-11-20T06:04:09;4.88;;;1.60;;
40967;SDS011;57377;45.130;6.038;2022-11-20T06:09:30;5.15;;;3.95;;
40967;SDS011;57377;45.130;6.038;2022-11-20T06:12:03;3.97;;;2.88;;
40967;SDS011;57377;45.130;6.038;2022-11-20T06:17:26;3.80;;;1.90;;
40967;SDS011;57377;45.130;6.038;2022-11-20T06:19:52;2.10;;;1.67;;
40967;SDS011;57377;45.130;6.038;2022-11-20T06:22:17;3.33;;;1.75;;
40967;SDS011;57377;45.130;6.038;2022-11-20T06:24:42;7.10;;;1.50;;
40967;SDS011;57377;45.130;6.038;2022-11-20T06:27:08;3.67;;;2.00;;
40967;SDS011;57377;45.130;6.038;2022-11-20T06:29:33;3.17;;;2.08;;
40967;SDS011;57377;45.130;6.038;2022-11-20T06:31:58;1.95;;;1.27;;
40967;SDS011;57377;45.130;6.038;2022-11-20T06:34:24;8.68;;;4.10;;
40967;SDS011;57377;45.130;6.038;2022-11-20T06:36:49;10.95;;;5.65;;
40967;SDS011;57377;45.130;6.038;2022-11-20T06:39:14;9.73;;;4.72;;
40967;SDS011;57377;45.130;6.038;2022-11-20T06:41:40;11.13;;;5.22;;
40967;SDS011;57377;45.130;6.038;2022-11-20T06:44:05;11.13;;;4.78;;
40967;SDS011;57377;45.130;6.038;2022-11-20T06:46:31;15.73;;;7.00;;
40967;SDS011;57377;45.130;6.038;2022-11-20T06:48:57;12.80;;;5.10;;
40967;SDS011;57377;45.130;6.038;2022-11-20T06:51:23;6.85;;;2.85;;
40967;SDS011;57377;45.130;6.038;2022-11-20T06:53:48;7.72;;;2.70;;
40967;SDS011;57377;45.130;6.038;2022-11-20T06:56:14;7.40;;;3.55;;
40967;SDS011;57377;45.130;6.038;2022-11-20T06:58:39;10.18;;;4.22;;
40967;SDS011;57377;45.130;6.038;2022-11-20T07:01:09;11.20;;;5.57;;
40967;SDS011;57377;45.130;6.038;2022-11-20T07:03:36;7.95;;;2.95;;
40967;SDS011;57377;45.130;6.038;2022-11-20T07:06:03;4.60;;;2.33;;
40967;SDS011;57377;45.130;6.038;2022-11-20T07:08:29;6.10;;;2.50;;
40967;SDS011;57377;45.130;6.038;2022-11-20T07:11:01;6.30;;;3.50;;
40967;SDS011;57377;45.130;6.038;2022-11-20T07:13:29;25.65;;;7.78;;
40967;SDS011;57377;45.130;6.038;2022-11-20T07:15:55;112.57;;;27.40;;
40967;SDS011;57377;45.130;6.038;2022-11-20T07:18:25;115.60;;;27.33;;
40967;SDS011;57377;45.130;6.038;2022-11-20T07:20:50;77.18;;;21.20;;
40967;SDS011;57377;45.130;6.038;2022-11-20T07:23:17;24.40;;;8.30;;
40967;SDS011;57377;45.130;6.038;2022-11-20T07:25:42;26.58;;;11.85;;
40967;SDS011;57377;45.130;6.038;2022-11-20T07:28:07;23.77;;;12.32;;
40967;SDS011;57377;45.130;6.038;2022-11-20T07:30:33;15.27;;;6.40;;
40967;SDS011;57377;45.130;6.038;2022-11-20T07:32:58;10.73;;;4.72;;
40967;SDS011;57377;45.130;6.038;2022-11-20T07:35:24;27.75;;;13.38;;
40967;SDS011;57377;45.130;6.038;2022-11-20T07:37:49;15.52;;;7.63;;
40967;SDS011;57377;45.130;6.038;2022-11-20T07:40:15;14.43;;;5.35;;
40967;SDS011;57377;45.130;6.038;2022-11-20T07:42:48;9.88;;;5.32;;
40967;SDS011;57377;45.130;6.038;2022-11-20T07:45:15;9.77;;;5.20;;
40967;SDS011;57377;45.130;6.038;2022-11-20T07:47:41;12.02;;;5.50;;
40967;SDS011;57377;45.130;6.038;2022-11-20T07:50:07;13.75;;;6.45;;
40967;SDS011;57377;45.130;6.038;2022-11-20T07:52:33;21.17;;;7.50;;
40967;SDS011;57377;45.130;6.038;2022-11-20T07:54:58;6.63;;;3.08;;
40967;SDS011;57377;45.130;6.038;2022-11-20T07:57:23;37.00;;;13.75;;
40967;SDS011;57377;45.130;6.038;2022-11-20T07:59:49;6.05;;;3.72;;
40967;SDS011;57377;45.130;6.038;2022-11-20T08:02:14;28.20;;;10.90;;
40967;SDS011;57377;45.130;6.038;2022-11-20T08:04:39;32.97;;;13.98;;
40967;SDS011;57377;45.130;6.038;2022-11-20T08:07:05;53.70;;;18.83;;
40967;SDS011;57377;45.130;6.038;2022-11-20T08:09:30;22.20;;;8.80;;
40967;SDS011;57377;45.130;6.038;2022-11-20T08:11:56;18.73;;;7.07;;
40967;SDS011;57377;45.130;6.038;2022-11-20T08:14:40;61.65;;;18.13;;
40967;SDS011;57377;45.130;6.038;2022-11-20T08:17:05;17.48;;;6.75;;
40967;SDS011;57377;45.130;6.038;2022-11-20T08:19:30;14.68;;;7.68;;
40967;SDS011;57377;45.130;6.038;2022-11-20T08:21:56;10.07;;;4.88;;
40967;SDS011;57377;45.130;6.038;2022-11-20T08:24:21;9.52;;;4.35;;
40967;SDS011;57377;45.130;6.038;2022-11-20T08:26:46;7.95;;;4.00;;
40967;SDS011;57377;45.130;6.038;2022-11-20T08:29:12;8.13;;;4.63;;
40967;SDS011;57377;45.130;6.038;2022-11-20T08:31:37;13.98;;;6.75;;
40967;SDS011;57377;45.130;6.038;2022-11-20T08:34:03;5.95;;;3.45;;
40967;SDS011;57377;45.130;6.038;2022-11-20T08:36:28;8.35;;;3.17;;
40967;SDS011;57377;45.130;6.038;2022-11-20T08:38:58;8.77;;;4.18;;
40967;SDS011;57377;45.130;6.038;2022-11-20T08:41:23;11.45;;;5.50;;
40967;SDS011;57377;45.130;6.038;2022-11-20T08:43:58;10.98;;;5.63;;
40967;SDS011;57377;45.130;6.038;2022-11-20T08:46:26;9.27;;;5.22;;
40967;SDS011;57377;45.130;6.038;2022-11-20T08:48:53;9.15;;;5.53;;
40967;SDS011;57377;45.130;6.038;2022-11-20T08:51:19;6.82;;;3.97;;
40967;SDS011;57377;45.130;6.038;2022-11-20T08:53:45;8.77;;;3.70;;
40967;SDS011;57377;45.130;6.038;2022-11-20T08:56:11;3.97;;;2.80;;
40967;SDS011;57377;45.130;6.038;2022-11-20T08:58:37;4.38;;;2.50;;
40967;SDS011;57377;45.130;6.038;2022-11-20T09:01:03;6.32;;;3.15;;
40967;SDS011;57377;45.130;6.038;2022-11-20T09:03:29;6.63;;;3.55;;
40967;SDS011;57377;45.130;6.038;2022-11-20T09:05:58;10.05;;;3.03;;
40967;SDS011;57377;45.130;6.038;2022-11-20T09:08:27;7.80;;;2.42;;
40967;SDS011;57377;45.130;6.038;2022-11-20T09:10:54;3.30;;;1.92;;
40967;SDS011;57377;45.130;6.038;2022-11-20T09:13:21;7.78;;;2.42;;
40967;SDS011;57377;45.130;6.038;2022-11-20T09:15:48;3.95;;;1.58;;
40967;SDS011;57377;45.130;6.038;2022-11-20T09:18:18;1.95;;;1.35;;
40967;SDS011;57377;45.130;6.038;2022-11-20T09:20:43;2.58;;;1.30;;
40967;SDS011;57377;45.130;6.038;2022-11-20T09:23:11;3.55;;;1.70;;
40967;SDS011;57377;45.130;6.038;2022-11-20T09:25:44;2.90;;;1.80;;
40967;SDS011;57377;45.130;6.038;2022-11-20T09:28:10;4.68;;;1.73;;
40967;SDS011;57377;45.130;6.038;2022-11-20T09:30:35;1.38;;;1.20;;
40967;SDS011;57377;45.130;6.038;2022-11-20T09:33:01;1.95;;;1.20;;
40967;SDS011;57377;45.130;6.038;2022-11-20T09:35:26;1.73;;;1.40;;
40967;SDS011;57377;45.130;6.038;2022-11-20T09:37:51;3.40;;;1.50;;
40967;SDS011;57377;45.130;6.038;2022-11-20T09:40:21;2.47;;;1.20;;
40967;SDS011;57377;45.130;6.038;2022-11-20T09:50:49;4.10;;;1.17;;
40967;SDS011;57377;45.130;6.038;2022-11-20T09:55:52;2.05;;;1.27;;
40967;SDS011;57377;45.130;6.038;2022-11-20T09:58:24;4.97;;;1.70;;
40967;SDS011;57377;45.130;6.038;2022-11-20T10:00:54;2.33;;;1.60;;
40967;SDS011;57377;45.130;6.038;2022-11-20T10:03:32;4.05;;;1.77;;
40967;SDS011;57377;45.130;6.038;2022-11-20T10:06:10;2.78;;;1.35;;
40967;SDS011;57377;45.130;6.038;2022-11-20T10:14:40;4.15;;;2.50;;
40967;SDS011;57377;45.130;6.038;2022-11-20T10:22:50;4.72;;;2.20;;
40967;SDS011;57377;45.130;6.038;2022-11-20T10:28:30;3.65;;;1.70;;
40967;SDS011;57377;45.130;6.038;2022-11-20T10:31:23;2.25;;;1.10;;
40967;SDS011;57377;45.130;6.038;2022-11-20T10:33:53;2.00;;;1.50;;
40967;SDS011;57377;45.130;6.038;2022-11-20T10:36:28;2.38;;;1.23;;
40967;SDS011;57377;45.130;6.038;2022-11-20T10:38:59;2.55;;;1.13;;
40967;SDS011;57377;45.130;6.038;2022-11-20T10:41:33;1.77;;;1.10;;
40967;SDS011;57377;45.130;6.038;2022-11-20T10:44:17;2.67;;;1.20;;
40967;SDS011;57377;45.130;6.038;2022-11-20T10:47:04;4.97;;;1.30;;
40967;SDS011;57377;45.130;6.038;2022-11-20T10:49:30;2.15;;;1.00;;
40967;SDS011;57377;45.130;6.038;2022-11-20T10:52:04;1.70;;;1.00;;
40967;SDS011;57377;45.130;6.038;2022-11-20T11:00:14;3.33;;;1.45;;
40967;SDS011;57377;45.130;6.038;2022-11-20T11:05:18;3.95;;;1.20;;
40967;SDS011;57377;45.130;6.038;2022-11-20T11:07:46;2.50;;;1.65;;
40967;SDS011;57377;45.130;6.038;2022-11-20T11:10:15;2.28;;;1.60;;
40967;SDS011;57377;45.130;6.038;2022-11-20T11:12:44;2.92;;;1.85;;
40967;SDS011;57377;45.130;6.038;2022-11-20T11:15:24;3.13;;;2.30;;
40967;SDS011;57377;45.130;6.038;2022-11-20T11:18:02;3.75;;;2.08;;
40967;SDS011;57377;45.130;6.038;2022-11-20T11:20:28;5.32;;;2.35;;
40967;SDS011;57377;45.130;6.038;2022-11-20T11:22:55;4.72;;;2.47;;
40967;SDS011;57377;45.130;6.038;2022-11-20T11:25:32;6.45;;;2.92;;
40967;SDS011;57377;45.130;6.038;2022-11-20T11:28:00;4.37;;;2.47;;
40967;SDS011;57377;45.130;6.038;2022-11-20T11:30:30;8.88;;;4.00;;
40967;SDS011;57377;45.130;6.038;2022-11-20T11:33:09;4.65;;;2.63;;
40967;SDS011;57377;45.130;6.038;2022-11-20T11:35:43;5.65;;;2.63;;
40967;SDS011;57377;45.130;6.038;2022-11-20T11:38:12;3.25;;;2.15;;
40967;SDS011;57377;45.130;6.038;2022-11-20T11:40:44;2.88;;;2.10;;
40967;SDS011;57377;45.130;6.038;2022-11-20T11:46:34;5.70;;;2.05;;
40967;SDS011;57377;45.130;6.038;2022-11-20T11:52:21;6.38;;;2.30;;
40967;SDS011;57377;45.130;6.038;2022-11-20T11:54:56;4.80;;;2.33;;
40967;SDS011;57377;45.130;6.038;2022-11-20T12:00:08;4.85;;;2.28;;
40967;SDS011;57377;45.130;6.038;2022-11-20T12:02:49;2.78;;;2.10;;
40967;SDS011;57377;45.130;6.038;2022-11-20T12:05:42;5.95;;;2.70;;
40967;SDS011;57377;45.130;6.038;2022-11-20T12:10:55;4.03;;;2.22;;
40967;SDS011;57377;45.130;6.038;2022-11-20T12:15:58;2.38;;;1.58;;
40967;SDS011;57377;45.130;6.038;2022-11-20T12:18:25;4.28;;;2.15;;
40967;SDS011;57377;45.130;6.038;2022-11-20T12:23:35;2.78;;;1.48;;
40967;SDS011;57377;45.130;6.038;2022-11-20T12:26:31;2.70;;;1.33;;
40967;SDS011;57377;45.130;6.038;2022-11-20T12:29:05;2.53;;;1.60;;
40967;SDS011;57377;45.130;6.038;2022-11-20T12:31:41;7.60;;;2.30;;
40967;SDS011;57377;45.130;6.038;2022-11-20T12:34:27;3.72;;;1.50;;
40967;SDS011;57377;45.130;6.038;2022-11-20T12:37:01;4.32;;;1.88;;
40967;SDS011;57377;45.130;6.038;2022-11-20T12:39:41;4.38;;;2.00;;
40967;SDS011;57377;45.130;6.038;2022-11-20T12:42:20;5.35;;;2.03;;
40967;SDS011;57377;45.130;6.038;2022-11-20T13:04:07;3.67;;;1.75;;
40967;SDS011;57377;45.130;6.038;2022-11-20T13:06:38;5.13;;;1.70;;
40967;SDS011;57377;45.130;6.038;2022-11-20T13:09:29;7.57;;;2.25;;
40967;SDS011;57377;45.130;6.038;2022-11-20T13:21:16;2.10;;;1.05;;
40967;SDS011;57377;45.130;6.038;2022-11-20T13:24:07;2.90;;;1.63;;
40967;SDS011;57377;45.130;6.038;2022-11-20T13:30:19;2.58;;;1.60;;
40967;SDS011;57377;45.130;6.038;2022-11-20T13:35:55;2.30;;;1.15;;
40967;SDS011;57377;45.130;6.038;2022-11-20T13:44:44;2.03;;;1.40;;
40967;SDS011;57377;45.130;6.038;2022-11-20T14:08:46;2.78;;;1.40;;
40967;SDS011;57377;45.130;6.038;2022-11-20T14:11:14;2.67;;;1.67;;
40967;SDS011;57377;45.130;6.038;2022-11-20T14:16:44;2.50;;;1.70;;
40967;SDS011;57377;45.130;6.038;2022-11-20T14:23:39;4.35;;;1.90;;
40967;SDS011;57377;45.130;6.038;2022-11-20T14:26:04;3.92;;;2.03;;
40967;SDS011;57377;45.130;6.038;2022-11-20T14:32:29;6.78;;;2.50;;
40967;SDS011;57377;45.130;6.038;2022-11-20T14:34:53;6.25;;;2.53;;
40967;SDS011;57377;45.130;6.038;2022-11-20T14:41:23;3.28;;;2.10;;
40967;SDS011;57377;45.130;6.038;2022-11-20T14:51:11;4.95;;;2.00;;
40967;SDS011;57377;45.130;6.038;2022-11-20T15:51:59;15.20;;;4.60;;
40967;SDS011;57377;45.130;6.038;2022-11-20T15:54:25;22.05;;;7.40;;
40967;SDS011;57377;45.130;6.038;2022-11-20T15:57:03;18.80;;;6.75;;
40967;SDS011;57377;45.130;6.038;2022-11-20T16:00:12;8.65;;;3.80;;
40967;SDS011;57377;45.130;6.038;2022-11-20T16:02:38;9.98;;;4.30;;
40967;SDS011;57377;45.130;6.038;2022-11-20T16:11:51;6.65;;;3.03;;
40967;SDS011;57377;45.130;6.038;2022-11-20T16:21:10;8.60;;;4.50;;
40967;SDS011;57377;45.130;6.038;2022-11-20T16:23:56;7.63;;;3.53;;
40967;SDS011;57377;45.130;6.038;2022-11-20T16:30:03;7.85;;;3.42;;
40967;SDS011;57377;45.130;6.038;2022-11-20T16:39:04;21.52;;;9.43;;
40967;SDS011;57377;45.130;6.038;2022-11-20T16:41:34;17.77;;;7.65;;
40967;SDS011;57377;45.130;6.038;2022-11-20T16:44:07;13.30;;;6.95;;
40967;SDS011;57377;45.130;6.038;2022-11-20T16:50:17;8.23;;;3.72;;
40967;SDS011;57377;45.130;6.038;2022-11-20T16:52:43;9.18;;;4.22;;
40967;SDS011;57377;45.130;6.038;2022-11-20T16:58:38;6.82;;;3.60;;
40967;SDS011;57377;45.130;6.038;2022-11-20T17:04:31;7.13;;;3.47;;
40967;SDS011;57377;45.130;6.038;2022-11-20T17:06:56;8.50;;;3.63;;
40967;SDS011;57377;45.130;6.038;2022-11-20T17:09:31;10.23;;;4.68;;
40967;SDS011;57377;45.130;6.038;2022-11-20T17:14:51;24.50;;;11.27;;
40967;SDS011;57377;45.130;6.038;2022-11-20T17:17:16;33.60;;;14.13;;
40967;SDS011;57377;45.130;6.038;2022-11-20T17:19:41;17.60;;;7.22;;
40967;SDS011;57377;45.130;6.038;2022-11-20T17:22:12;6.72;;;3.63;;
40967;SDS011;57377;45.130;6.038;2022-11-20T17:27:51;6.97;;;4.05;;
40967;SDS011;57377;45.130;6.038;2022-11-20T17:33:50;3.08;;;2.20;;
40967;SDS011;57377;45.130;6.038;2022-11-20T17:36:28;5.60;;;2.38;;
40967;SDS011;57377;45.130;6.038;2022-11-20T17:39:01;4.47;;;2.40;;
40967;SDS011;57377;45.130;6.038;2022-11-20T17:41:35;4.35;;;2.20;;
40967;SDS011;57377;45.130;6.038;2022-11-20T17:44:03;4.20;;;2.17;;
40967;SDS011;57377;45.130;6.038;2022-11-20T17:46:31;4.28;;;1.98;;
40967;SDS011;57377;45.130;6.038;2022-11-20T17:49:03;4.10;;;2.15;;
40967;SDS011;57377;45.130;6.038;2022-11-20T17:51:42;2.65;;;1.70;;
40967;SDS011;57377;45.130;6.038;2022-11-20T17:54:10;4.72;;;2.63;;
40967;SDS011;57377;45.130;6.038;2022-11-20T17:56:36;6.82;;;2.60;;
40967;SDS011;57377;45.130;6.038;2022-11-20T17:59:20;4.80;;;2.50;;
40967;SDS011;57377;45.130;6.038;2022-11-20T18:01:49;5.03;;;2.85;;
40967;SDS011;57377;45.130;6.038;2022-11-20T18:04:14;6.88;;;4.55;;
40967;SDS011;57377;45.130;6.038;2022-11-20T18:06:40;9.00;;;3.67;;
40967;SDS011;57377;45.130;6.038;2022-11-20T18:09:06;9.20;;;4.00;;
40967;SDS011;57377;45.130;6.038;2022-11-20T18:11:36;7.93;;;3.85;;
40967;SDS011;57377;45.130;6.038;2022-11-20T18:14:04;9.38;;;4.18;;
40967;SDS011;57377;45.130;6.038;2022-11-20T18:19:35;6.68;;;3.17;;
40967;SDS011;57377;45.130;6.038;2022-11-20T18:22:01;5.72;;;3.33;;
40967;SDS011;57377;45.130;6.038;2022-11-20T18:24:29;5.95;;;3.50;;
40967;SDS011;57377;45.130;6.038;2022-11-20T18:26:56;8.00;;;3.45;;
40967;SDS011;57377;45.130;6.038;2022-11-20T18:29:22;5.28;;;3.22;;
40967;SDS011;57377;45.130;6.038;2022-11-20T18:31:47;8.15;;;3.75;;
40967;SDS011;57377;45.130;6.038;2022-11-20T18:34:13;7.80;;;3.40;;
40967;SDS011;57377;45.130;6.038;2022-11-20T18:36:38;4.38;;;2.88;;
40967;SDS011;57377;45.130;6.038;2022-11-20T18:39:05;17.40;;;4.20;;
40967;SDS011;57377;45.130;6.038;2022-11-20T18:41:30;9.85;;;4.68;;
40967;SDS011;57377;45.130;6.038;2022-11-20T18:44:15;9.10;;;4.78;;
40967;SDS011;57377;45.130;6.038;2022-11-20T18:47:03;10.38;;;5.65;;
40967;SDS011;57377;45.130;6.038;2022-11-20T18:49:40;11.05;;;5.43;;
40967;SDS011;57377;45.130;6.038;2022-11-20T18:52:19;9.63;;;4.53;;
40967;SDS011;57377;45.130;6.038;2022-11-20T18:54:49;7.60;;;3.75;;
40967;SDS011;57377;45.130;6.038;2022-11-20T18:57:19;8.70;;;4.35;;
40967;SDS011;57377;45.130;6.038;2022-11-20T18:59:47;11.45;;;5.82;;
40967;SDS011;57377;45.130;6.038;2022-11-20T19:02:17;10.77;;;4.50;;
40967;SDS011;57377;45.130;6.038;2022-11-20T19:05:06;3.00;;;1.60;;
40967;SDS011;57377;45.130;6.038;2022-11-20T19:07:46;2.88;;;1.05;;
40967;SDS011;57377;45.130;6.038;2022-11-20T19:11:04;1.80;;;0.80;;
40967;SDS011;57377;45.130;6.038;2022-11-20T19:13:39;1.88;;;0.82;;
40967;SDS011;57377;45.130;6.038;2022-11-20T19:16:06;0.50;;;0.50;;